Time,TemperatureF,DewpointF,PressureIn,WindDirection,WindDirectionDegrees,WindSpeedMPH,WindSpeedGustMPH,Humidity,HourlyPrecipIn,Conditions,Clouds,dailyrainin,SoftwareType,DateUTC
2013-06-24 00:13:00,76.7,68.0,29.94,WSW,238,2.0,2.0,74,0.00,,,0.00,weatherlink.com 1.10,2013-06-24 04:13:00,
2013-06-24 00:28:00,76.2,68.0,29.94,WSW,243,4.0,4.0,75,0.00,,,0.00,weatherlink.com 1.10,2013-06-24 04:28:00,
2013-06-24 00:43:00,76.0,68.0,29.93,SW,235,2.0,2.0,75,0.00,,,0.00,weatherlink.com 1.10,2013-06-24 04:43:00,
2013-06-24 00:58:00,75.4,68.0,29.93,WSW,248,2.0,2.0,77,0.00,,,0.00,weatherlink.com 1.10,2013-06-24 04:58:00,
2013-06-24 01:13:00,75.1,68.0,29.93,WSW,244,2.0,3.0,78,0.00,,,0.00,weatherlink.com 1.10,2013-06-24 05:13:00,
2013-06-24 01:28:00,75.0,68.0,29.93,WSW,250,0.0,2.0,78,0.00,,,0.00,weatherlink.com 1.10,2013-06-24 05:28:00,
2013-06-24 01:58:00,74.3,68.0,29.93,WSW,249,1.0,2.0,80,0.00,,,0.00,weatherlink.com 1.10,2013-06-24 05:58:00,
2013-06-24 02:29:00,73.9,67.0,29.93,SW,235,2.0,3.0,80,0.00,,,0.00,weatherlink.com 1.10,2013-06-24 06:29:00,
2013-06-24 02:44:00,73.9,68.0,29.93,WSW,242,2.0,3.0,81,0.00,,,0.00,weatherlink.com 1.10,2013-06-24 06:44:00,
2013-06-24 02:59:00,73.9,68.0,29.93,SW,236,2.0,5.0,81,0.00,,,0.00,weatherlink.com 1.10,2013-06-24 06:59:00,
2013-06-24 03:14:00,74.0,68.0,29.93,WSW,252,2.0,4.0,81,0.00,,,0.00,weatherlink.com 1.10,2013-06-24 07:14:00,
2013-06-24 03:29:00,74.1,68.0,29.94,West,262,3.0,5.0,81,0.00,,,0.00,weatherlink.com 1.10,2013-06-24 07:29:00,
2013-06-24 03:44:00,74.2,68.0,29.94,WSW,242,5.0,6.0,81,0.00,,,0.00,weatherlink.com 1.10,2013-06-24 07:44:00,
2013-06-24 04:14:00,73.5,68.0,29.94,WSW,248,3.0,5.0,83,0.00,,,0.00,weatherlink.com 1.10,2013-06-24 08:14:00,
2013-06-24 04:29:00,73.1,68.0,29.94,WSW,243,6.0,9.0,84,0.00,,,0.00,weatherlink.com 1.10,2013-06-24 08:29:00,
2013-06-24 04:45:00,73.2,68.0,29.94,SW,235,5.0,9.0,84,0.00,,,0.00,weatherlink.com 1.10,2013-06-24 08:45:00,
2013-06-24 04:59:00,73.2,68.0,29.94,WSW,242,3.0,10.0,83,0.00,,,0.00,weatherlink.com 1.10,2013-06-24 08:59:00,
2013-06-24 05:14:00,73.1,68.0,29.94,SW,236,4.0,8.0,83,0.00,,,0.00,weatherlink.com 1.10,2013-06-24 09:14:00,
2013-06-24 05:29:00,72.9,68.0,29.94,WSW,250,4.0,8.0,84,0.00,,,0.00,weatherlink.com 1.10,2013-06-24 09:29:00,
2013-06-24 05:44:00,72.5,68.0,29.94,SW,231,3.0,6.0,85,0.00,,,0.00,weatherlink.com 1.10,2013-06-24 09:44:00,
2013-06-24 05:59:00,72.3,68.0,29.94,WSW,240,3.0,6.0,85,0.00,,,0.00,weatherlink.com 1.10,2013-06-24 09:59:00,
2013-06-24 06:14:00,72.2,68.0,29.94,WSW,240,4.0,6.0,85,0.00,,,0.00,weatherlink.com 1.10,2013-06-24 10:14:00,
2013-06-24 06:29:00,72.3,68.0,29.94,SW,235,4.0,6.0,85,0.00,,,0.00,weatherlink.com 1.10,2013-06-24 10:29:00,
2013-06-24 06:44:00,72.6,68.0,29.94,WSW,245,6.0,8.0,85,0.00,,,0.00,weatherlink.com 1.10,2013-06-24 10:44:00,
2013-06-24 06:59:00,73.1,68.0,29.95,WSW,249,4.0,8.0,84,0.00,,,0.00,weatherlink.com 1.10,2013-06-24 10:59:00,
2013-06-24 07:14:00,73.6,69.0,29.94,West,267,4.0,8.0,84,0.00,,,0.00,weatherlink.com 1.10,2013-06-24 11:14:00,
2013-06-24 07:29:00,73.9,69.0,29.95,WSW,252,4.0,9.0,83,0.00,,,0.00,weatherlink.com 1.10,2013-06-24 11:29:00,
2013-06-24 07:44:00,73.5,68.0,29.95,WSW,255,5.0,9.0,83,0.00,,,0.00,weatherlink.com 1.10,2013-06-24 11:44:00,
2013-06-24 08:14:00,75.1,69.0,29.95,WSW,240,5.0,7.0,81,0.00,,,0.00,weatherlink.com 1.10,2013-06-24 12:14:00,
2013-06-24 08:29:00,75.6,69.0,29.95,WNW,288,3.0,9.0,80,0.00,,,0.00,weatherlink.com 1.10,2013-06-24 12:29:00,
2013-06-24 08:59:00,76.3,69.0,29.95,West,262,3.0,10.0,78,0.00,,,0.00,weatherlink.com 1.10,2013-06-24 12:59:00,
2013-06-24 09:14:00,76.5,69.0,29.96,WSW,245,2.0,11.0,78,0.00,,,0.00,weatherlink.com 1.10,2013-06-24 13:14:00,
2013-06-24 09:29:00,77.1,70.0,29.95,WSW,238,5.0,9.0,78,0.00,,,0.00,weatherlink.com 1.10,2013-06-24 13:29:00,
2013-06-24 09:44:00,77.5,70.0,29.95,WSW,248,7.0,15.0,78,0.00,,,0.00,weatherlink.com 1.10,2013-06-24 13:44:00,
2013-06-24 09:59:00,78.0,71.0,29.95,WSW,251,5.0,13.0,78,0.00,,,0.00,weatherlink.com 1.10,2013-06-24 13:59:00,
2013-06-24 10:14:00,78.5,71.0,29.95,WSW,245,5.0,11.0,77,0.00,,,0.00,weatherlink.com 1.10,2013-06-24 14:14:00,
2013-06-24 10:29:00,78.6,70.0,29.95,SW,235,6.0,16.0,76,0.00,,,0.00,weatherlink.com 1.10,2013-06-24 14:29:00,
2013-06-24 10:44:00,78.2,70.0,29.95,SW,232,8.0,11.0,77,0.00,,,0.00,weatherlink.com 1.10,2013-06-24 14:44:00,
2013-06-24 10:59:00,78.6,70.0,29.96,WSW,245,4.0,13.0,76,0.00,,,0.00,weatherlink.com 1.10,2013-06-24 14:59:00,
2013-06-24 11:29:00,79.9,72.0,29.95,WSW,243,1.0,9.0,76,0.00,,,0.00,weatherlink.com 1.10,2013-06-24 15:29:00,
2013-06-24 11:45:00,81.0,72.0,29.96,SW,221,4.0,8.0,74,0.00,,,0.00,weatherlink.com 1.10,2013-06-24 15:45:00,
2013-06-24 12:00:00,80.8,71.0,29.96,West,267,5.0,15.0,72,0.00,,,0.00,weatherlink.com 1.10,2013-06-24 16:00:00,
2013-06-24 12:30:00,81.1,71.0,29.95,WSW,255,6.0,13.0,71,0.00,,,0.00,weatherlink.com 1.10,2013-06-24 16:30:00,
2013-06-24 12:45:00,81.7,72.0,29.95,WSW,249,4.0,9.0,72,0.00,,,0.00,weatherlink.com 1.10,2013-06-24 16:45:00,
2013-06-24 13:15:00,83.9,70.0,29.94,WNW,297,4.0,10.0,64,0.00,,,0.00,weatherlink.com 1.10,2013-06-24 17:15:00,
2013-06-24 13:30:00,84.5,70.0,29.93,WSW,238,7.0,12.0,62,0.00,,,0.00,weatherlink.com 1.10,2013-06-24 17:30:00,
2013-06-24 14:15:00,85.8,70.0,29.92,WSW,248,4.0,14.0,60,0.00,,,0.00,weatherlink.com 1.10,2013-06-24 18:15:00,
2013-06-24 14:30:00,85.5,69.0,29.91,WNW,285,4.0,12.0,58,0.00,,,0.00,weatherlink.com 1.10,2013-06-24 18:30:00,
2013-06-24 15:00:00,85.5,69.0,29.89,SW,217,8.0,11.0,58,0.00,,,0.00,weatherlink.com 1.10,2013-06-24 19:00:00,
2013-06-24 15:15:00,86.2,69.0,29.88,West,271,6.0,12.0,56,0.00,,,0.00,weatherlink.com 1.10,2013-06-24 19:15:00,
2013-06-24 15:30:00,86.3,69.0,29.88,WNW,284,6.0,11.0,56,0.00,,,0.00,weatherlink.com 1.10,2013-06-24 19:30:00,
2013-06-24 15:45:00,86.3,68.0,29.88,WSW,242,4.0,14.0,55,0.00,,,0.00,weatherlink.com 1.10,2013-06-24 19:45:00,
2013-06-24 16:15:00,86.3,69.0,29.87,WSW,242,6.0,14.0,56,0.00,,,0.00,weatherlink.com 1.10,2013-06-24 20:15:00,
2013-06-24 16:30:00,86.3,69.0,29.87,WNW,287,3.0,9.0,57,0.00,,,0.00,weatherlink.com 1.10,2013-06-24 20:30:00,
2013-06-24 16:45:00,86.2,70.0,29.86,SW,225,4.0,11.0,58,0.00,,,0.00,weatherlink.com 1.10,2013-06-24 20:45:00,
2013-06-24 17:00:00,85.7,68.0,29.86,SW,231,8.0,13.0,56,0.00,,,0.00,weatherlink.com 1.10,2013-06-24 21:00:00,
2013-06-24 17:15:00,85.9,68.0,29.85,SW,232,5.0,12.0,56,0.00,,,0.00,weatherlink.com 1.10,2013-06-24 21:15:00,
2013-06-24 17:30:00,85.7,69.0,29.84,WSW,246,4.0,10.0,57,0.00,,,0.00,weatherlink.com 1.10,2013-06-24 21:30:00,
2013-06-24 18:00:00,85.8,69.0,29.85,WSW,256,2.0,11.0,58,0.00,,,0.00,weatherlink.com 1.10,2013-06-24 22:00:00,
2013-06-24 18:15:00,86.1,69.0,29.85,SW,224,1.0,10.0,57,0.00,,,0.00,weatherlink.com 1.10,2013-06-24 22:15:00,
2013-06-24 18:30:00,86.4,69.0,29.85,West,259,2.0,8.0,57,0.00,,,0.00,weatherlink.com 1.10,2013-06-24 22:30:00,
2013-06-24 18:45:00,85.7,67.0,29.85,SW,236,5.0,13.0,54,0.00,,,0.00,weatherlink.com 1.10,2013-06-24 22:45:00,
2013-06-24 19:15:00,84.7,66.0,29.86,WNW,285,5.0,11.0,53,0.00,,,0.00,weatherlink.com 1.10,2013-06-24 23:15:00,
2013-06-24 19:46:00,83.9,65.0,29.86,West,263,6.0,15.0,54,0.00,,,0.00,weatherlink.com 1.10,2013-06-24 23:46:00,
2013-06-24 20:01:00,83.5,66.0,29.86,West,280,2.0,11.0,55,0.00,,,0.00,weatherlink.com 1.10,2013-06-25 00:01:00,
2013-06-24 20:16:00,82.8,66.0,29.86,SW,229,2.0,9.0,57,0.00,,,0.00,weatherlink.com 1.10,2013-06-25 00:16:00,
2013-06-24 20:31:00,82.5,66.0,29.85,WSW,250,5.0,9.0,57,0.00,,,0.00,weatherlink.com 1.10,2013-06-25 00:31:00,
2013-06-24 20:46:00,81.9,66.0,29.85,West,266,2.0,8.0,58,0.00,,,0.00,weatherlink.com 1.10,2013-06-25 00:46:00,
2013-06-24 21:01:00,81.1,66.0,29.85,WSW,248,3.0,5.0,60,0.00,,,0.00,weatherlink.com 1.10,2013-06-25 01:01:00,
2013-06-24 21:16:00,80.3,66.0,29.85,WSW,252,1.0,4.0,62,0.00,,,0.00,weatherlink.com 1.10,2013-06-25 01:16:00,
2013-06-24 21:31:00,79.5,66.0,29.84,West,274,1.0,1.0,63,0.00,,,0.00,weatherlink.com 1.10,2013-06-25 01:31:00,
2013-06-24 21:46:00,78.7,66.0,29.84,West,274,0.0,1.0,66,0.00,,,0.00,weatherlink.com 1.10,2013-06-25 01:46:00,
2013-06-24 22:16:00,78.1,67.0,29.85,NW,319,1.0,3.0,69,0.00,,,0.00,weatherlink.com 1.10,2013-06-25 02:16:00,
2013-06-24 22:31:00,78.1,64.0,29.85,WSW,242,4.0,6.0,63,0.00,,,0.00,weatherlink.com 1.10,2013-06-25 02:31:00,
2013-06-24 22:46:00,77.2,66.0,29.86,WSW,238,6.0,8.0,69,0.00,,,0.00,weatherlink.com 1.10,2013-06-25 02:46:00,
2013-06-24 23:01:00,76.3,66.0,29.86,SW,236,3.0,4.0,71,0.00,,,0.00,weatherlink.com 1.10,2013-06-25 03:01:00,
2013-06-24 23:31:00,75.2,66.0,29.84,West,266,0.0,1.0,73,0.00,,,0.00,weatherlink.com 1.10,2013-06-25 03:31:00,